sensor_id;sensor_type;location;lat;lon;timestamp;temperature;humidity
30063;DHT22;16889;67.864;24.990;2023-04-01T00:03:01;-5.20;99.90
30063;DHT22;16889;67.864;24.990;2023-04-01T00:07:47;-5.20;99.90
30063;DHT22;16889;67.864;24.990;2023-04-01T00:12:34;-5.20;99.90
30063;DHT22;16889;67.864;24.990;2023-04-01T00:17:20;-5.20;99.90
30063;DHT22;16889;67.864;24.990;2023-04-01T00:22:07;-5.30;99.90
30063;DHT22;16889;67.864;24.990;2023-04-01T00:26:57;-5.30;99.90
30063;DHT22;16889;67.864;24.990;2023-04-01T00:31:43;-5.40;99.90
30063;DHT22;16889;67.864;24.990;2023-04-01T00:36:29;-5.60;99.90
30063;DHT22;16889;67.864;24.990;2023-04-01T00:41:15;-5.70;99.90
30063;DHT22;16889;67.864;24.990;2023-04-01T00:46:02;-5.80;99.90
30063;DHT22;16889;67.864;24.990;2023-04-01T00:50:52;-5.70;99.90
30063;DHT22;16889;67.864;24.990;2023-04-01T00:55:46;-5.60;99.90
30063;DHT22;16889;67.864;24.990;2023-04-01T01:00:34;-5.50;99.90
30063;DHT22;16889;67.864;24.990;2023-04-01T01:10:38;-5.70;99.90
30063;DHT22;16889;67.864;24.990;2023-04-01T01:30:16;-5.90;99.90
30063;DHT22;16889;67.864;24.990;2023-04-01T01:35:35;-5.80;99.90
30063;DHT22;16889;67.864;24.990;2023-04-01T01:40:24;-5.70;99.90
30063;DHT22;16889;67.864;24.990;2023-04-01T01:45:14;-5.70;99.90
30063;DHT22;16889;67.864;24.990;2023-04-01T01:50:04;-5.70;99.90
30063;DHT22;16889;67.864;24.990;2023-04-01T01:54:53;-5.60;99.90
30063;DHT22;16889;67.864;24.990;2023-04-01T01:59:40;-5.60;99.90
30063;DHT22;16889;67.864;24.990;2023-04-01T02:04:28;-5.60;99.90
30063;DHT22;16889;67.864;24.990;2023-04-01T02:09:15;-5.80;99.90
30063;DHT22;16889;67.864;24.990;2023-04-01T02:14:14;-5.80;99.90
30063;DHT22;16889;67.864;24.990;2023-04-01T02:19:03;-5.80;99.90
30063;DHT22;16889;67.864;24.990;2023-04-01T02:23:53;-5.80;99.90
30063;DHT22;16889;67.864;24.990;2023-04-01T02:28:41;-5.70;99.90
30063;DHT22;16889;67.864;24.990;2023-04-01T02:33:29;-5.80;99.90
30063;DHT22;16889;67.864;24.990;2023-04-01T02:38:16;-5.90;99.90
30063;DHT22;16889;67.864;24.990;2023-04-01T02:43:02;-6.00;99.90
30063;DHT22;16889;67.864;24.990;2023-04-01T02:47:47;-6.20;99.90
30063;DHT22;16889;67.864;24.990;2023-04-01T02:52:34;-6.20;99.90
30063;DHT22;16889;67.864;24.990;2023-04-01T02:57:20;-6.30;99.90
30063;DHT22;16889;67.864;24.990;2023-04-01T03:02:06;-6.20;99.90
30063;DHT22;16889;67.864;24.990;2023-04-01T03:06:52;-6.20;99.90
30063;DHT22;16889;67.864;24.990;2023-04-01T03:11:38;-6.30;99.90
30063;DHT22;16889;67.864;24.990;2023-04-01T03:16:25;-6.40;99.90
30063;DHT22;16889;67.864;24.990;2023-04-01T03:21:20;-6.30;99.90
30063;DHT22;16889;67.864;24.990;2023-04-01T03:26:06;-6.20;99.90
30063;DHT22;16889;67.864;24.990;2023-04-01T03:30:52;-6.20;99.90
30063;DHT22;16889;67.864;24.990;2023-04-01T03:35:38;-6.20;99.90
30063;DHT22;16889;67.864;24.990;2023-04-01T03:40:24;-6.20;99.90
30063;DHT22;16889;67.864;24.990;2023-04-01T03:45:12;-6.20;99.90
30063;DHT22;16889;67.864;24.990;2023-04-01T03:49:58;-6.20;99.90
30063;DHT22;16889;67.864;24.990;2023-04-01T03:54:44;-6.30;99.90
30063;DHT22;16889;67.864;24.990;2023-04-01T03:59:30;-6.40;99.90
30063;DHT22;16889;67.864;24.990;2023-04-01T04:04:16;-6.40;99.90
30063;DHT22;16889;67.864;24.990;2023-04-01T04:09:03;-6.50;99.90
30063;DHT22;16889;67.864;24.990;2023-04-01T04:13:49;-6.60;99.90
30063;DHT22;16889;67.864;24.990;2023-04-01T04:18:35;-6.70;99.90
30063;DHT22;16889;67.864;24.990;2023-04-01T04:23:21;-6.70;99.90
30063;DHT22;16889;67.864;24.990;2023-04-01T04:28:07;-6.70;99.90
30063;DHT22;16889;67.864;24.990;2023-04-01T04:32:53;-6.60;99.90
30063;DHT22;16889;67.864;24.990;2023-04-01T04:37:39;-6.60;99.90
30063;DHT22;16889;67.864;24.990;2023-04-01T04:42:25;-6.60;99.90
30063;DHT22;16889;67.864;24.990;2023-04-01T04:47:11;-6.50;99.90
30063;DHT22;16889;67.864;24.990;2023-04-01T04:51:57;-6.50;99.90
30063;DHT22;16889;67.864;24.990;2023-04-01T04:56:43;-6.60;99.90
30063;DHT22;16889;67.864;24.990;2023-04-01T05:01:29;-6.40;99.90
30063;DHT22;16889;67.864;24.990;2023-04-01T05:06:17;-6.20;99.90
30063;DHT22;16889;67.864;24.990;2023-04-01T05:11:03;-6.40;99.90
30063;DHT22;16889;67.864;24.990;2023-04-01T05:15:49;-6.30;99.90
30063;DHT22;16889;67.864;24.990;2023-04-01T05:20:35;-6.30;99.90
30063;DHT22;16889;67.864;24.990;2023-04-01T05:25:21;-6.20;99.90
30063;DHT22;16889;67.864;24.990;2023-04-01T05:30:07;-6.00;99.90
30063;DHT22;16889;67.864;24.990;2023-04-01T05:34:54;-5.70;99.90
30063;DHT22;16889;67.864;24.990;2023-04-01T05:39:40;-5.40;99.90
30063;DHT22;16889;67.864;24.990;2023-04-01T05:44:26;-4.80;99.90
30063;DHT22;16889;67.864;24.990;2023-04-01T05:49:12;-3.10;99.90
30063;DHT22;16889;67.864;24.990;2023-04-01T05:53:58;-1.20;99.90
30063;DHT22;16889;67.864;24.990;2023-04-01T05:58:47;-0.50;99.90
30063;DHT22;16889;67.864;24.990;2023-04-01T06:03:36;-0.80;99.90
30063;DHT22;16889;67.864;24.990;2023-04-01T06:08:22;-1.50;99.90
30063;DHT22;16889;67.864;24.990;2023-04-01T06:29:13;-2.20;99.90
30063;DHT22;16889;67.864;24.990;2023-04-01T06:43:50;-1.60;99.90
30063;DHT22;16889;67.864;24.990;2023-04-01T06:49:12;-1.10;99.90
30063;DHT22;16889;67.864;24.990;2023-04-01T06:54:05;-0.50;99.90
30063;DHT22;16889;67.864;24.990;2023-04-01T06:59:13;-0.70;99.90
30063;DHT22;16889;67.864;24.990;2023-04-01T07:09:15;3.10;97.80
30063;DHT22;16889;67.864;24.990;2023-04-01T07:19:01;7.10;63.90
30063;DHT22;16889;67.864;24.990;2023-04-01T07:23:50;7.40;62.20
30063;DHT22;16889;67.864;24.990;2023-04-01T07:28:37;5.00;66.50
30063;DHT22;16889;67.864;24.990;2023-04-01T07:43:52;0.00;93.30
30063;DHT22;16889;67.864;24.990;2023-04-01T07:54:13;-0.60;95.00
30063;DHT22;16889;67.864;24.990;2023-04-01T07:59:23;-0.70;95.20
30063;DHT22;16889;67.864;24.990;2023-04-01T08:20:32;-1.10;97.80
30063;DHT22;16889;67.864;24.990;2023-04-01T08:25:27;-0.20;96.60
30063;DHT22;16889;67.864;24.990;2023-04-01T08:30:20;1.20;91.90
30063;DHT22;16889;67.864;24.990;2023-04-01T08:35:46;0.60;92.70
30063;DHT22;16889;67.864;24.990;2023-04-01T08:40:32;-0.20;93.00
30063;DHT22;16889;67.864;24.990;2023-04-01T08:46:14;-0.70;94.90
30063;DHT22;16889;67.864;24.990;2023-04-01T08:51:15;-0.40;96.60
30063;DHT22;16889;67.864;24.990;2023-04-01T08:57:13;-0.40;94.30
30063;DHT22;16889;67.864;24.990;2023-04-01T09:12:18;-0.80;95.50
30063;DHT22;16889;67.864;24.990;2023-04-01T09:22:39;-1.20;98.30
30063;DHT22;16889;67.864;24.990;2023-04-01T09:27:54;-1.00;98.40
30063;DHT22;16889;67.864;24.990;2023-04-01T09:42:42;-0.50;95.80
30063;DHT22;16889;67.864;24.990;2023-04-01T10:13:59;0.00;93.90
30063;DHT22;16889;67.864;24.990;2023-04-01T10:55:31;-0.50;94.30
30063;DHT22;16889;67.864;24.990;2023-04-01T11:21:15;0.40;94.90
30063;DHT22;16889;67.864;24.990;2023-04-01T11:31:35;-0.70;95.90
30063;DHT22;16889;67.864;24.990;2023-04-01T11:46:25;-1.10;97.80
30063;DHT22;16889;67.864;24.990;2023-04-01T11:56:24;-1.10;98.90
30063;DHT22;16889;67.864;24.990;2023-04-01T12:06:50;-0.40;94.80
30063;DHT22;16889;67.864;24.990;2023-04-01T12:27:10;-1.30;97.60
30063;DHT22;16889;67.864;24.990;2023-04-01T12:37:28;-0.80;96.20
30063;DHT22;16889;67.864;24.990;2023-04-01T12:42:49;-0.80;97.00
30063;DHT22;16889;67.864;24.990;2023-04-01T13:23:16;-1.00;98.30
30063;DHT22;16889;67.864;24.990;2023-04-01T13:28:26;-0.90;99.60
30063;DHT22;16889;67.864;24.990;2023-04-01T13:43:37;-1.90;99.90
30063;DHT22;16889;67.864;24.990;2023-04-01T14:20:39;-1.40;99.70
30063;DHT22;16889;67.864;24.990;2023-04-01T14:25:38;-1.40;99.90
30063;DHT22;16889;67.864;24.990;2023-04-01T14:35:56;-1.70;99.90
30063;DHT22;16889;67.864;24.990;2023-04-01T14:41:17;-1.90;99.90
30063;DHT22;16889;67.864;24.990;2023-04-01T14:51:44;-2.00;99.90
30063;DHT22;16889;67.864;24.990;2023-04-01T14:56:43;-2.10;99.90
30063;DHT22;16889;67.864;24.990;2023-04-01T15:21:18;-2.00;99.90
30063;DHT22;16889;67.864;24.990;2023-04-01T15:36:44;-2.00;99.90
30063;DHT22;16889;67.864;24.990;2023-04-01T16:07:55;-2.70;99.90
30063;DHT22;16889;67.864;24.990;2023-04-01T16:12:51;-3.10;99.90
30063;DHT22;16889;67.864;24.990;2023-04-01T16:23:26;-3.60;99.90
30063;DHT22;16889;67.864;24.990;2023-04-01T16:28:34;-3.60;99.90
30063;DHT22;16889;67.864;24.990;2023-04-01T16:33:46;-3.70;99.90
30063;DHT22;16889;67.864;24.990;2023-04-01T16:38:40;-3.70;99.90
30063;DHT22;16889;67.864;24.990;2023-04-01T16:43:43;-3.70;99.90
30063;DHT22;16889;67.864;24.990;2023-04-01T16:48:59;-3.70;99.90
30063;DHT22;16889;67.864;24.990;2023-04-01T16:59:07;-3.80;99.90
30063;DHT22;16889;67.864;24.990;2023-04-01T17:04:07;-3.90;99.90
30063;DHT22;16889;67.864;24.990;2023-04-01T17:09:09;-4.00;99.90
30063;DHT22;16889;67.864;24.990;2023-04-01T17:29:43;-4.30;99.90
30063;DHT22;16889;67.864;24.990;2023-04-01T17:34:41;-4.40;99.90
30063;DHT22;16889;67.864;24.990;2023-04-01T17:39:48;-4.60;99.90
30063;DHT22;16889;67.864;24.990;2023-04-01T17:44:41;-4.60;99.90
30063;DHT22;16889;67.864;24.990;2023-04-01T17:50:08;-4.60;99.90
30063;DHT22;16889;67.864;24.990;2023-04-01T17:55:03;-4.60;99.90
30063;DHT22;16889;67.864;24.990;2023-04-01T18:00:06;-4.60;99.90
30063;DHT22;16889;67.864;24.990;2023-04-01T18:10:29;-4.80;99.90
30063;DHT22;16889;67.864;24.990;2023-04-01T18:26:14;-5.00;99.90
30063;DHT22;16889;67.864;24.990;2023-04-01T18:46:23;-5.50;99.90
30063;DHT22;16889;67.864;24.990;2023-04-01T18:51:36;-5.60;99.90
30063;DHT22;16889;67.864;24.990;2023-04-01T18:56:34;-5.80;99.90
30063;DHT22;16889;67.864;24.990;2023-04-01T19:06:28;-5.90;99.90
30063;DHT22;16889;67.864;24.990;2023-04-01T19:11:37;-6.00;99.90
30063;DHT22;16889;67.864;24.990;2023-04-01T19:21:35;-6.10;99.90
30063;DHT22;16889;67.864;24.990;2023-04-01T19:36:42;-6.30;99.90
30063;DHT22;16889;67.864;24.990;2023-04-01T19:41:40;-6.40;99.90
30063;DHT22;16889;67.864;24.990;2023-04-01T19:46:36;-6.60;99.90
30063;DHT22;16889;67.864;24.990;2023-04-01T19:51:35;-6.80;99.90
30063;DHT22;16889;67.864;24.990;2023-04-01T19:56:24;-7.00;99.90
30063;DHT22;16889;67.864;24.990;2023-04-01T20:01:34;-7.00;99.90
30063;DHT22;16889;67.864;24.990;2023-04-01T20:16:16;-7.10;99.90
30063;DHT22;16889;67.864;24.990;2023-04-01T20:21:18;-7.20;99.90
30063;DHT22;16889;67.864;24.990;2023-04-01T20:26:10;-7.30;99.90
30063;DHT22;16889;67.864;24.990;2023-04-01T20:31:21;-7.30;99.90
30063;DHT22;16889;67.864;24.990;2023-04-01T20:41:40;-7.30;99.90
30063;DHT22;16889;67.864;24.990;2023-04-01T20:51:59;-7.60;99.90
30063;DHT22;16889;67.864;24.990;2023-04-01T20:57:04;-7.80;99.90
30063;DHT22;16889;67.864;24.990;2023-04-01T21:12:16;-8.10;99.90
30063;DHT22;16889;67.864;24.990;2023-04-01T21:27:24;-7.80;99.90
30063;DHT22;16889;67.864;24.990;2023-04-01T21:37:26;-7.30;99.90
30063;DHT22;16889;67.864;24.990;2023-04-01T21:52:19;-6.70;99.90
30063;DHT22;16889;67.864;24.990;2023-04-01T22:17:57;-5.50;99.90
30063;DHT22;16889;67.864;24.990;2023-04-01T22:28:00;-5.50;99.90
30063;DHT22;16889;67.864;24.990;2023-04-01T22:48:25;-4.90;99.90
30063;DHT22;16889;67.864;24.990;2023-04-01T22:58:36;-5.00;99.90
30063;DHT22;16889;67.864;24.990;2023-04-01T23:03:32;-4.90;99.90
30063;DHT22;16889;67.864;24.990;2023-04-01T23:13:18;-4.80;99.90
30063;DHT22;16889;67.864;24.990;2023-04-01T23:18:25;-4.70;99.90
30063;DHT22;16889;67.864;24.990;2023-04-01T23:33:21;-5.00;99.90
30063;DHT22;16889;67.864;24.990;2023-04-01T23:38:08;-5.00;99.90
30063;DHT22;16889;67.864;24.990;2023-04-01T23:42:54;-5.00;99.90
30063;DHT22;16889;67.864;24.990;2023-04-01T23:47:41;-5.00;99.90
30063;DHT22;16889;67.864;24.990;2023-04-01T23:52:31;-5.10;99.90
30063;DHT22;16889;67.864;24.990;2023-04-01T23:57:32;-5.10;99.90
